Gafsa, Tunisia
Current Conditions -  °F | °C
As of 1:00 PM on Thursday 23 Oct 2014 (Local Time) from DTTF Reporting Station
Few Clouds Few Clouds  
Wind Chill: 73°   Ceiling: Unl
Heat Index: 73°   Visibility: 5mi
Dew Point: 37°   Wind: 15mph
Humidity: 27%   Direction: 350°N
Pressure: 30"   Gusts: NA
Location:  34.42°N, 8.79°E
Report Text: DTTF 231200Z 35013KT 320V020 8000 FEW026 23/03 Q1016 NOSIG
Loading
Personal Weather Stations






























Interactive Weather Map
Tropical Storm Tracking
New forecast layout! Learn more

10-Day Weather Forecast

Advertisements
Track Severe Weather on mobile